Mountain Green, Utah
Current Conditions -  °F | °C
As of 2:58 AM on Saturday 22 Nov 2014 (Local Time) from KHIF Reporting Station
Overcast Overcast  
Wind Chill: 34°   Ceiling: 8500
Heat Index: 42°   Visibility: 10mi
Dew Point: 24°   Wind: 14mph
Humidity: 50%   Direction: 200°SSW
Pressure: 29.96"   Gusts: NA
Location:  41.0884°N, 111.576°W
Report Text: KHIF 220958Z AUTO 20012KT 10SM BKN085 OVC100 05/M04 A2996 RMK AO2 SLP128 T00531045
Loading
Personal Weather Stations






























Interactive Weather Map New forecast layout! Learn more

10-Day Weather Forecast

Advertisements
Track Severe Weather on mobile